createdAt,value
2022-10-01T00:01:34.653Z,7.25
2022-10-01T00:04:43.219Z,6.73
2022-10-01T00:07:58.468Z,6.70
2022-10-01T00:11:01.159Z,6.53
2022-10-01T00:14:16.383Z,6.95
2022-10-01T00:17:24.903Z,6.72
2022-10-01T00:20:33.382Z,6.47
2022-10-01T00:24:00.522Z,6.90
2022-10-01T00:27:08.983Z,7.32
2022-10-01T00:30:17.379Z,7.25
2022-10-01T00:33:25.944Z,7.12
2022-10-01T00:36:34.380Z,6.97
2022-10-01T00:39:43.123Z,7.05
2022-10-01T00:42:57.758Z,7.60
2022-10-01T00:46:24.688Z,6.53
2022-10-01T00:49:43.399Z,7.82
2022-10-01T00:52:56.670Z,7.27
2022-10-01T00:56:06.378Z,7.68
2022-10-01T00:59:21.371Z,8.10
2022-10-01T01:02:23.017Z,7.65
2022-10-01T01:05:37.379Z,7.55
2022-10-01T01:09:12.455Z,7.57
2022-10-01T01:12:36.779Z,7.70
2022-10-01T01:16:03.454Z,7.95
2022-10-01T01:19:38.408Z,7.57
2022-10-01T01:23:06.579Z,8.52
2022-10-01T01:26:58.431Z,7.80
2022-10-01T01:30:26.400Z,9.13
2022-10-01T01:33:31.587Z,7.78
2022-10-01T01:36:52.444Z,7.10
2022-10-01T01:39:56.902Z,7.70
2022-10-01T01:43:36.391Z,7.60
2022-10-01T01:46:46.623Z,7.45
2022-10-01T01:49:56.404Z,8.43
2022-10-01T01:53:05.033Z,8.55
2022-10-01T01:56:19.400Z,8.25
2022-10-01T01:59:41.600Z,7.80
2022-10-01T02:03:00.455Z,7.80
2022-10-01T02:06:38.599Z,8.63
2022-10-01T02:10:26.407Z,8.48
2022-10-01T02:14:00.462Z,8.13
2022-10-01T02:17:16.561Z,9.30
2022-10-01T02:20:49.428Z,8.63
2022-10-01T02:24:43.455Z,9.10
2022-10-01T02:28:13.457Z,9.07
2022-10-01T02:31:24.531Z,8.73
2022-10-01T02:34:40.390Z,8.13
2022-10-01T02:37:44.680Z,8.35
2022-10-01T02:41:02.420Z,8.30
2022-10-01T02:44:23.486Z,7.45
2022-10-01T02:47:29.244Z,7.78
2022-10-01T02:50:54.421Z,6.87
2022-10-01T02:54:13.459Z,8.07
2022-10-01T02:57:23.450Z,8.05
2022-10-01T03:00:38.429Z,7.50
2022-10-01T03:03:46.967Z,8.07
2022-10-01T03:06:55.478Z,8.27
2022-10-01T03:10:05.035Z,7.90
2022-10-01T03:13:13.467Z,7.65
2022-10-01T03:16:22.028Z,7.30
2022-10-01T03:19:36.431Z,8.65
2022-10-01T03:22:44.668Z,8.40
2022-10-01T03:25:53.195Z,7.87
2022-10-01T03:29:07.416Z,9.05
2022-10-01T03:32:15.471Z,8.25
2022-10-01T03:35:31.653Z,8.55
2022-10-01T03:38:34.890Z,7.87
2022-10-01T03:42:10.464Z,9.00
2022-10-01T03:45:19.204Z,9.10
2022-10-01T03:48:27.494Z,8.13
2022-10-01T03:51:43.445Z,8.40
2022-10-01T03:54:52.088Z,9.07
2022-10-01T03:58:00.435Z,8.45
2022-10-01T04:01:08.871Z,7.97
2022-10-01T04:04:23.451Z,8.63
2022-10-01T04:07:24.996Z,8.00
2022-10-01T04:10:39.539Z,9.43
2022-10-01T04:13:41.491Z,8.32
2022-10-01T04:16:56.581Z,8.95
2022-10-01T04:20:24.949Z,8.73
2022-10-01T04:23:39.460Z,9.20
2022-10-01T04:26:54.508Z,8.87
2022-10-01T04:30:05.551Z,8.10
2022-10-01T04:33:16.526Z,9.00
2022-10-01T04:36:32.471Z,8.82
2022-10-01T04:39:40.948Z,7.47
2022-10-01T04:42:49.464Z,8.30
2022-10-01T04:46:04.445Z,7.70
2022-10-01T04:49:12.455Z,7.85
2022-10-01T04:52:27.512Z,7.70
2022-10-01T04:55:36.093Z,7.47
2022-10-01T04:58:44.435Z,7.83
2022-10-01T05:01:53.025Z,8.35
2022-10-01T05:05:08.456Z,8.40
2022-10-01T05:08:10.117Z,8.10
2022-10-01T05:11:24.517Z,7.57
2022-10-01T05:14:26.216Z,7.47
2022-10-01T05:17:40.470Z,7.85
2022-10-01T05:20:49.875Z,8.13
2022-10-01T05:24:04.519Z,8.48
2022-10-01T05:27:13.059Z,8.27
2022-10-01T05:30:28.456Z,7.70
2022-10-01T05:33:31.130Z,7.60
2022-10-01T05:36:45.459Z,8.18
2022-10-01T05:39:47.236Z,7.97
2022-10-01T05:43:03.466Z,7.90
2022-10-01T05:46:12.020Z,7.33
2022-10-01T05:49:20.474Z,7.40
2022-10-01T05:52:28.936Z,8.07
2022-10-01T05:55:43.520Z,7.78
2022-10-01T05:58:45.328Z,7.22
2022-10-01T06:01:59.602Z,7.53
2022-10-01T06:05:01.260Z,7.07
2022-10-01T06:08:15.489Z,7.95
2022-10-01T06:11:24.183Z,11.52
2022-10-01T06:14:32.487Z,8.80
2022-10-01T06:17:47.504Z,8.20
2022-10-01T06:21:04.486Z,8.27
2022-10-01T06:24:12.716Z,8.70
2022-10-01T06:27:27.543Z,9.05
2022-10-01T06:30:45.480Z,8.15
2022-10-01T06:33:47.034Z,8.33
2022-10-01T06:37:01.494Z,7.90
2022-10-01T06:40:03.759Z,8.30
2022-10-01T06:43:18.474Z,7.72
2022-10-01T06:46:27.036Z,8.55
2022-10-01T06:49:35.475Z,7.87
2022-10-01T06:52:44.115Z,8.20
2022-10-01T06:55:58.488Z,7.90
2022-10-01T06:59:00.247Z,8.07
2022-10-01T07:02:30.549Z,7.70
2022-10-01T07:05:52.146Z,7.97
2022-10-01T07:09:06.508Z,7.97
2022-10-01T07:12:14.983Z,8.07
2022-10-01T07:15:25.539Z,8.07
2022-10-01T07:18:34.374Z,8.40
2022-10-01T07:21:48.487Z,8.17
2022-10-01T07:24:56.764Z,7.37
2022-10-01T07:28:13.559Z,8.40
2022-10-01T07:31:16.252Z,8.55
2022-10-01T07:34:30.553Z,8.07
2022-10-01T07:37:45.517Z,8.13
2022-10-01T07:40:52.472Z,8.20
2022-10-01T07:44:07.559Z,8.93
2022-10-01T07:47:16.028Z,8.90
2022-10-01T07:50:24.590Z,9.13
2022-10-01T07:53:33.108Z,8.83
2022-10-01T07:56:41.511Z,8.38
2022-10-01T07:59:56.508Z,8.68
2022-10-01T08:03:12.637Z,8.45
2022-10-01T08:06:14.264Z,8.35
2022-10-01T08:09:28.580Z,8.80
2022-10-01T08:12:43.518Z,8.75
2022-10-01T08:15:53.522Z,8.93
2022-10-01T08:19:02.518Z,8.93
2022-10-01T08:22:17.578Z,7.97
2022-10-01T08:25:25.869Z,7.77
2022-10-01T08:28:41.511Z,7.87
2022-10-01T08:31:49.573Z,7.50
2022-10-01T08:34:58.138Z,7.93
2022-10-01T08:38:12.664Z,7.18
2022-10-01T08:41:44.320Z,7.43
2022-10-01T08:44:59.575Z,6.40
2022-10-01T08:48:26.582Z,8.45
2022-10-01T08:51:45.692Z,7.80
2022-10-01T08:55:06.550Z,8.38
2022-10-01T08:58:32.587Z,7.93
2022-10-01T09:01:34.448Z,7.85
2022-10-01T09:04:49.554Z,9.00
2022-10-01T09:08:17.606Z,8.95
2022-10-01T09:11:55.900Z,9.18
2022-10-01T09:15:39.560Z,9.10
2022-10-01T09:18:58.618Z,9.80
2022-10-01T09:22:33.555Z,10.13
2022-10-01T09:25:56.552Z,9.88
2022-10-01T09:29:07.564Z,10.15
2022-10-01T09:32:21.492Z,9.70
2022-10-01T09:35:45.799Z,9.68
2022-10-01T09:39:11.767Z,9.93
2022-10-01T09:42:26.019Z,9.30
2022-10-01T09:45:34.592Z,10.05
2022-10-01T09:49:09.559Z,9.90
2022-10-01T09:52:36.279Z,9.88
2022-10-01T09:55:48.619Z,9.73
2022-10-01T09:59:17.522Z,10.15
2022-10-01T10:02:33.771Z,10.55
2022-10-01T10:05:46.527Z,10.37
2022-10-01T10:08:54.552Z,9.32
2022-10-01T10:12:09.554Z,10.00
2022-10-01T10:15:28.547Z,9.23
2022-10-01T10:18:39.607Z,10.07
2022-10-01T10:21:58.578Z,8.90
2022-10-01T10:25:13.709Z,8.60
2022-10-01T10:28:30.697Z,9.77
2022-10-01T10:31:50.632Z,9.50
2022-10-01T10:35:03.549Z,9.63
2022-10-01T10:38:25.564Z,9.10
2022-10-01T10:41:29.746Z,9.05
2022-10-01T10:44:45.760Z,9.68
2022-10-01T10:48:00.561Z,9.50
2022-10-01T10:51:07.795Z,9.30
2022-10-01T10:54:26.643Z,8.83
2022-10-01T10:57:32.662Z,8.75
2022-10-01T11:00:54.571Z,10.00
2022-10-01T11:04:03.056Z,9.52
2022-10-01T11:07:11.660Z,8.55
2022-10-01T11:10:28.706Z,10.87
2022-10-01T11:13:57.562Z,7.70
2022-10-01T11:17:45.608Z,7.85
2022-10-01T11:21:12.968Z,8.50
2022-10-01T11:24:39.585Z,8.30
2022-10-01T11:28:17.990Z,7.40
2022-10-01T11:31:44.648Z,6.93
2022-10-01T11:35:12.624Z,7.75
2022-10-01T11:38:39.331Z,7.12
2022-10-01T11:41:59.678Z,7.10
2022-10-01T11:45:13.993Z,9.10
2022-10-01T11:48:37.596Z,7.15
2022-10-01T11:51:49.591Z,7.25
2022-10-01T11:55:14.684Z,7.60
2022-10-01T11:58:34.649Z,6.10
2022-10-01T12:01:59.675Z,5.83
2022-10-01T12:05:16.298Z,5.25
2022-10-01T12:08:29.746Z,6.25
2022-10-01T12:12:02.607Z,4.57
2022-10-01T12:15:19.760Z,3.97
2022-10-01T12:18:36.647Z,4.30
2022-10-01T12:22:24.372Z,4.75
2022-10-01T12:26:07.636Z,4.30
2022-10-01T12:29:28.671Z,4.12
2022-10-01T12:33:03.695Z,3.90
2022-10-01T12:36:25.288Z,3.93
2022-10-01T12:39:54.952Z,3.60
2022-10-01T12:44:08.607Z,3.78
2022-10-01T12:47:32.283Z,4.10
2022-10-01T12:51:07.176Z,3.60
2022-10-01T12:54:39.880Z,3.10
2022-10-01T12:58:20.136Z,2.90
2022-10-01T13:01:49.669Z,3.47
2022-10-01T13:05:24.639Z,2.85
2022-10-01T13:08:50.931Z,2.40
2022-10-01T13:12:20.695Z,2.50
2022-10-01T13:15:45.672Z,2.58
2022-10-01T13:19:20.849Z,2.72
2022-10-01T13:22:51.680Z,2.37
2022-10-01T13:26:20.651Z,2.50
2022-10-01T13:29:39.716Z,2.30
2022-10-01T13:33:04.620Z,2.67
2022-10-01T13:36:35.150Z,2.65
2022-10-01T13:39:43.624Z,2.72
2022-10-01T13:43:03.869Z,2.95
2022-10-01T13:47:11.004Z,2.30
2022-10-01T13:50:47.640Z,2.35
2022-10-01T13:54:02.239Z,2.60
2022-10-01T13:57:33.660Z,2.90
2022-10-01T14:00:35.659Z,3.40
2022-10-01T14:04:01.894Z,3.67
2022-10-01T14:07:29.094Z,3.65
2022-10-01T14:11:11.654Z,3.65
2022-10-01T14:14:37.755Z,3.83
2022-10-01T14:17:41.021Z,4.25
2022-10-01T14:21:14.684Z,5.00
2022-10-01T14:25:29.161Z,4.18
2022-10-01T14:29:22.028Z,4.15
2022-10-01T14:33:09.474Z,3.85
2022-10-01T14:36:39.966Z,4.20
2022-10-01T14:39:48.667Z,3.90
2022-10-01T14:43:02.506Z,5.05
2022-10-01T14:46:20.737Z,5.18
2022-10-01T14:49:26.673Z,4.85
2022-10-01T14:52:42.768Z,5.65
2022-10-01T14:56:01.664Z,5.37
2022-10-01T14:59:36.228Z,5.07
2022-10-01T15:02:58.813Z,5.43
2022-10-01T15:06:20.782Z,5.28
2022-10-01T15:09:22.403Z,5.12
2022-10-01T15:12:36.700Z,5.57
2022-10-01T15:15:45.404Z,4.95
2022-10-01T15:18:59.735Z,5.87
2022-10-01T15:22:22.011Z,6.40
2022-10-01T15:25:53.277Z,6.53
2022-10-01T15:29:27.727Z,7.70
2022-10-01T15:33:02.791Z,7.35
2022-10-01T15:36:24.951Z,7.90
2022-10-01T15:40:01.726Z,6.20
2022-10-01T15:43:29.783Z,6.68
2022-10-01T15:46:38.548Z,5.30
2022-10-01T15:50:08.954Z,6.18
2022-10-01T15:53:22.214Z,5.43
2022-10-01T15:56:56.684Z,5.40
2022-10-01T15:59:59.308Z,4.78
2022-10-01T16:03:26.025Z,4.80
2022-10-01T16:07:26.814Z,3.72
2022-10-01T16:11:14.149Z,3.78
2022-10-01T16:14:36.719Z,3.03
2022-10-01T16:18:01.764Z,3.10
2022-10-01T16:21:11.265Z,2.73
2022-10-01T16:24:32.737Z,2.50
2022-10-01T16:27:47.673Z,2.70
2022-10-01T16:31:01.715Z,2.50
2022-10-01T16:34:23.255Z,1.87
2022-10-01T16:42:27.738Z,1.70
2022-10-01T16:46:15.120Z,1.90
2022-10-01T16:49:29.024Z,1.67
2022-10-01T16:52:48.805Z,1.52
2022-10-01T16:55:57.411Z,1.57
2022-10-01T16:59:15.150Z,2.28
2022-10-01T17:02:41.326Z,1.67
2022-10-01T17:06:31.950Z,1.45
2022-10-01T17:09:47.946Z,1.37
2022-10-01T17:12:59.379Z,1.30
2022-10-01T17:16:24.632Z,1.33
2022-10-01T17:19:37.868Z,1.60
2022-10-01T17:23:04.891Z,1.50
2022-10-01T17:26:21.251Z,1.15
2022-10-01T17:29:37.958Z,1.53
2022-10-01T17:33:01.468Z,1.50
2022-10-01T17:36:16.803Z,1.75
2022-10-01T17:39:31.771Z,1.35
2022-10-01T17:42:45.455Z,1.60
2022-10-01T17:46:05.866Z,1.50
2022-10-01T17:49:14.537Z,1.70
2022-10-01T17:52:25.813Z,1.40
2022-10-01T17:55:52.091Z,1.50
2022-10-01T17:59:10.367Z,1.20
2022-10-01T18:02:36.723Z,1.03
2022-10-01T18:05:47.721Z,1.62
2022-10-01T18:08:56.870Z,1.45
2022-10-01T18:12:04.723Z,0.88
2022-10-01T18:15:13.167Z,1.60
2022-10-01T18:21:56.735Z,1.30
2022-10-01T18:25:18.727Z,1.60
2022-10-01T18:28:22.724Z,1.30
2022-10-01T18:31:46.771Z,1.42
2022-10-01T18:35:05.740Z,1.83
2022-10-01T18:38:20.438Z,1.70
2022-10-01T18:41:42.731Z,2.00
2022-10-01T18:44:45.723Z,1.90
2022-10-01T18:48:24.734Z,2.40
2022-10-01T18:51:51.724Z,1.67
2022-10-01T18:55:21.278Z,2.20
2022-10-01T18:59:04.806Z,2.50
2022-10-01T19:02:50.485Z,2.37
2022-10-01T19:06:10.551Z,2.33
2022-10-01T19:09:47.740Z,3.00
2022-10-01T19:13:11.411Z,3.15
2022-10-01T19:16:45.883Z,3.92
2022-10-01T19:20:21.815Z,3.42
2022-10-01T19:24:13.745Z,4.18
2022-10-01T19:27:52.794Z,4.30
2022-10-01T19:31:21.801Z,4.40
2022-10-01T19:34:41.179Z,3.42
2022-10-01T19:37:55.759Z,3.37
2022-10-01T19:41:22.747Z,3.00
2022-10-01T19:44:31.212Z,2.90
2022-10-01T19:47:52.756Z,2.78
2022-10-01T19:51:09.126Z,3.00
2022-10-01T19:54:22.056Z,2.72
2022-10-01T19:57:38.757Z,2.90
2022-10-01T20:00:42.430Z,3.10
2022-10-01T20:04:07.771Z,2.65
2022-10-01T20:07:34.819Z,2.70
2022-10-01T20:10:43.049Z,2.90
2022-10-01T20:14:12.772Z,2.50
2022-10-01T20:17:30.525Z,2.27
2022-10-01T20:20:47.815Z,2.80
2022-10-01T20:24:39.835Z,2.40
2022-10-01T20:28:07.995Z,2.55
2022-10-01T20:31:31.863Z,2.60
2022-10-01T20:35:01.848Z,1.70
2022-10-01T20:38:11.484Z,1.87
2022-10-01T20:41:28.815Z,1.80
2022-10-01T20:44:44.808Z,1.70
2022-10-01T20:47:53.335Z,1.73
2022-10-01T20:51:23.789Z,1.30
2022-10-01T20:54:38.796Z,1.20
2022-10-01T20:57:54.797Z,1.62
2022-10-01T21:01:15.942Z,1.52
2022-10-01T21:04:23.036Z,1.92
2022-10-01T21:07:54.878Z,1.70
2022-10-01T21:11:16.831Z,1.65
2022-10-01T21:14:28.683Z,1.85
2022-10-01T21:17:54.889Z,2.50
2022-10-01T21:21:15.643Z,1.27
2022-10-01T21:24:58.799Z,1.37
2022-10-01T21:28:33.956Z,1.52
2022-10-01T21:32:18.781Z,1.30
2022-10-01T21:35:39.475Z,1.42
2022-10-01T21:39:01.840Z,1.48
2022-10-01T21:42:15.924Z,1.50
2022-10-01T21:45:43.841Z,1.30
2022-10-01T21:49:18.483Z,1.30
2022-10-01T21:52:46.790Z,1.27
2022-10-01T21:56:30.829Z,1.75
2022-10-01T22:00:03.211Z,1.53
2022-10-01T22:03:42.810Z,1.48
2022-10-01T22:07:03.816Z,1.40
2022-10-01T22:10:26.983Z,1.62
2022-10-01T22:13:39.823Z,1.27
2022-10-01T22:17:01.881Z,1.50
2022-10-01T22:20:10.439Z,1.27
2022-10-01T22:23:23.848Z,1.58
2022-10-01T22:26:44.832Z,1.48
2022-10-01T22:30:00.820Z,1.20
2022-10-01T22:33:23.786Z,0.97
2022-10-01T22:36:41.424Z,1.17
2022-10-01T22:39:57.804Z,1.30
2022-10-01T22:43:16.875Z,0.90
2022-10-01T22:46:51.566Z,1.37
2022-10-01T22:50:16.809Z,0.83
2022-10-01T22:53:55.843Z,0.82
2022-10-01T22:57:21.590Z,1.17
2022-10-01T23:00:29.811Z,1.05
2022-10-01T23:04:02.829Z,1.10
2022-10-01T23:07:20.487Z,1.10
2022-10-01T23:10:55.821Z,1.00
2022-10-01T23:14:29.231Z,0.90
2022-10-01T23:17:48.820Z,0.60
2022-10-01T23:21:26.815Z,0.90
2022-10-01T23:25:00.912Z,0.90
2022-10-01T23:28:25.923Z,0.68
2022-10-01T23:31:49.881Z,0.90
2022-10-01T23:35:11.384Z,1.10
2022-10-01T23:38:39.808Z,1.05
2022-10-01T23:41:54.915Z,0.73
2022-10-01T23:45:12.893Z,0.80
2022-10-01T23:48:36.841Z,0.90
2022-10-01T23:51:55.200Z,0.70
2022-10-01T23:55:10.852Z,0.80
2022-10-01T23:58:22.835Z,0.90
